Time;durP1;ratioP1;P1;durP2;ratioP2;P2;SDS_P1;SDS_P2;PMS_P1;PMS_P2;Temp;Humidity;BMP_temperature;BMP_pressure;BME280_temperature;BME280_humidity;BME280_pressure;Samples;Min_cycle;Max_cycle;Signal;HPM_P1;HPM_P2
2022/12/27 00:00:16;;;;;;;;;19.00;17.25;;;;;6.97;69.82;101825.59;5036426;28;46313;-68
2022/12/27 00:02:41;;;;;;;;;8.50;7.50;;;;;6.98;69.58;101823.84;5036665;28;45350;-69
2022/12/27 00:05:08;;;;;;;;;7.00;7.00;;;;;7.09;70.27;101836.88;5035467;28;45332;-69
2022/12/27 00:07:33;;;;;;;;;5.00;5.00;;;;;7.10;69.61;101836.00;5036389;28;45402;-69
2022/12/27 00:09:59;;;;;;;;;7.50;7.50;;;;;7.12;70.20;101832.50;5038686;28;46343;-69
2022/12/27 00:12:24;;;;;;;;;8.50;8.50;;;;;7.10;70.06;101826.41;5035643;28;45427;-65
2022/12/27 00:14:49;;;;;;;;;8.75;8.75;;;;;7.21;70.49;101831.56;5035483;28;45631;-67
2022/12/27 00:17:15;;;;;;;;;8.25;8.25;;;;;7.25;69.53;101845.50;5035185;28;51030;-68
2022/12/27 00:19:40;;;;;;;;;9.50;9.50;;;;;7.25;69.88;101840.25;5035594;28;46113;-65
2022/12/27 00:22:05;;;;;;;;;10.00;10.00;;;;;7.24;70.22;101839.41;5035734;28;45439;-63
2022/12/27 00:24:31;;;;;;;;;11.50;11.50;;;;;7.27;69.44;101844.63;5035822;28;45365;-64
2022/12/27 00:26:56;;;;;;;;;9.25;9.25;;;;;7.25;69.85;101842.88;5036298;28;45475;-66
2022/12/27 00:29:21;;;;;;;;;11.50;11.50;;;;;7.28;70.66;101850.72;5035272;28;47334;-64
2022/12/27 00:31:47;;;;;;;;;11.00;11.00;;;;;7.29;70.51;101858.56;5035392;28;45322;-64
2022/12/27 00:34:12;;;;;;;;;8.25;8.25;;;;;7.28;70.38;101859.44;5017456;28;45764;-66
2022/12/27 00:36:37;;;;;;;;;11.00;11.00;;;;;7.22;69.37;101840.28;5035990;28;45203;-66
2022/12/27 00:39:03;;;;;;;;;11.00;10.00;;;;;7.21;70.48;101854.25;5034997;28;46077;-63
2022/12/27 00:41:30;;;;;;;;;9.00;9.00;;;;;7.22;69.48;101853.38;5035170;28;45338;-63
2022/12/27 00:43:55;;;;;;;;;14.00;14.00;;;;;7.14;70.13;101846.44;5035427;28;45476;-64
2022/12/27 00:46:20;;;;;;;;;12.75;12.75;;;;;7.16;69.86;101855.13;5017511;28;45551;-64
2022/12/27 00:48:46;;;;;;;;;10.00;10.00;;;;;7.15;70.14;101865.63;5035040;28;46133;-65
2022/12/27 00:51:18;;;;;;;;;8.25;8.25;;;;;7.11;69.76;101864.75;5035767;28;45435;-67
2022/12/27 00:53:44;;;;;;;;;11.50;11.50;;;;;7.08;70.89;101870.00;5035289;28;45305;-64
2022/12/27 00:56:13;;;;;;;;;10.00;10.00;;;;;7.05;70.66;101866.56;5039297;28;45644;-69
2022/12/27 00:58:38;;;;;;;;;16.25;16.25;;;;;7.02;71.03;101870.03;5036170;28;47257;-67
2022/12/27 01:01:07;;;;;;;;;13.00;13.00;;;;;6.99;70.30;101868.31;5034889;28;52695;-68
2022/12/27 01:03:32;;;;;;;;;9.50;9.50;;;;;6.97;69.89;101869.19;5035908;28;45238;-69
2022/12/27 01:06:03;;;;;;;;;10.00;9.00;;;;;6.95;70.86;101876.19;5035735;28;47106;-67
2022/12/27 01:08:29;;;;;;;;;9.50;9.50;;;;;6.91;70.74;101877.97;5036272;28;45446;-68
2022/12/27 01:10:54;;;;;;;;;8.25;8.25;;;;;6.87;70.49;101869.25;5035181;28;45468;-63
2022/12/27 01:13:19;;;;;;;;;8.50;8.50;;;;;6.87;71.11;101873.59;5035665;28;45339;-67
2022/12/27 01:15:44;;;;;;;;;10.50;10.50;;;;;6.83;70.81;101877.09;5035072;28;45548;-67
2022/12/27 01:18:10;;;;;;;;;10.25;10.25;;;;;6.84;71.11;101877.09;5038568;28;46303;-69
2022/12/27 01:20:37;;;;;;;;;9.50;9.25;;;;;6.81;71.28;101876.22;5037762;28;60525;-66
2022/12/27 01:23:02;;;;;;;;;10.50;10.50;;;;;6.82;70.77;101878.84;5038346;28;45562;-68
2022/12/27 01:25:28;;;;;;;;;8.50;8.50;;;;;6.81;70.85;101882.34;5020232;28;45537;-69
2022/12/27 01:27:53;;;;;;;;;9.25;9.25;;;;;6.83;70.81;101879.69;5037866;28;45503;-69
2022/12/27 01:30:18;;;;;;;;;9.50;9.50;;;;;6.82;72.18;101877.97;5037293;28;65374;-69
2022/12/27 01:32:43;;;;;;;;;9.25;9.25;;;;;6.78;71.66;101871.00;5037981;28;52523;-69
2022/12/27 01:35:09;;;;;;;;;13.25;12.00;;;;;6.73;71.09;101871.03;5037649;28;56007;-68
2022/12/27 01:37:34;;;;;;;;;10.25;9.25;;;;;6.79;70.84;101881.47;5038279;28;51160;-69
2022/12/27 01:39:59;;;;;;;;;9.25;9.25;;;;;6.79;71.68;101884.09;5038406;28;51902;-66
2022/12/27 01:45:18;;;;;;;;;8.50;8.50;;;;;6.82;71.46;101894.53;5038473;28;45431;-68
2022/12/27 01:47:47;;;;;;;;;7.00;7.00;;;;;6.57;71.34;101849.28;5038118;28;46468;-70
2022/12/27 01:50:37;;;;;;;;;7.00;7.00;;;;;6.83;72.54;101898.91;5038245;28;45407;-70
2022/12/27 01:53:06;;;;;;;;;5.50;5.50;;;;;6.85;71.94;101896.25;5019844;28;45367;-69
2022/12/27 01:56:29;;;;;;;;;6.25;6.25;;;;;6.86;71.42;101896.28;5037938;28;45260;-68
2022/12/27 01:59:04;;;;;;;;;6.00;6.00;;;;;6.84;72.02;101902.38;4956360;28;46392;-70
2022/12/27 02:01:35;;;;;;;;;5.75;5.75;;;;;6.79;71.75;101894.56;4956781;28;45303;-69
2022/12/27 02:04:09;;;;;;;;;6.25;6.25;;;;;6.72;71.55;101877.13;5013260;28;45378;-68
2022/12/27 02:06:37;;;;;;;;;9.00;9.00;;;;;6.78;72.21;101900.66;5038008;28;45456;-64
2022/12/27 02:09:19;;;;;;;;;8.25;7.25;;;;;6.79;72.33;101896.28;5037484;28;45340;-63
2022/12/27 02:11:51;;;;;;;;;7.50;7.50;;;;;6.85;72.78;101911.94;5020671;28;45430;-63
2022/12/27 02:14:41;;;;;;;;;9.00;9.00;;;;;6.84;72.47;101904.97;5038187;28;45533;-66
2022/12/27 02:17:12;;;;;;;;;9.00;9.00;;;;;6.83;72.06;101917.22;5029454;28;45334;-69
2022/12/27 02:19:40;;;;;;;;;10.00;9.25;;;;;6.81;71.45;101907.59;5039003;28;45431;-67
2022/12/27 02:22:18;;;;;;;;;8.00;8.00;;;;;6.77;72.30;101905.88;5038617;28;45470;-64
2022/12/27 02:25:30;;;;;;;;;5.75;5.75;;;;;6.73;72.09;101913.72;5038036;28;45297;-67
2022/12/27 02:28:26;;;;;;;;;6.50;6.50;;;;;6.69;72.27;101913.75;4956246;28;45418;-64
2022/12/27 02:31:01;;;;;;;;;7.75;7.75;;;;;6.67;72.96;101899.81;5037783;28;46413;-65
2022/12/27 02:33:33;;;;;;;;;6.75;6.75;;;;;6.60;72.92;101887.63;5037049;28;45376;-63
2022/12/27 02:36:07;;;;;;;;;6.00;5.75;;;;;6.63;72.93;101896.31;5037515;28;45329;-63
2022/12/27 02:38:38;;;;;;;;;6.75;6.75;;;;;6.59;72.17;101894.59;5038614;28;45538;-70
2022/12/27 02:58:57;;;;;;;;;5.00;5.00;;;;;6.56;73.50;101907.69;5023423;28;45305;-66
2022/12/27 03:04:23;;;;;;;;;6.00;6.00;;;;;6.55;73.42;101912.06;5036475;28;45281;-68
2022/12/27 03:07:17;;;;;;;;;5.00;5.00;;;;;6.55;72.59;101917.28;5036864;28;45341;-66
2022/12/27 03:15:56;;;;;;;;;5.25;5.25;;;;;6.36;73.09;101881.56;5038566;28;45850;-68
2022/12/27 03:18:28;;;;;;;;;7.50;7.50;;;;;6.58;73.80;101922.50;5036858;28;45337;-68
2022/12/27 03:26:33;;;;;;;;;5.75;5.00;;;;;6.56;73.74;101910.28;5036328;28;45462;-69
2022/12/27 03:34:40;;;;;;;;;5.75;5.75;;;;;6.62;73.47;101914.66;5036413;28;45373;-69
2022/12/27 03:40:34;;;;;;;;;5.00;5.00;;;;;6.67;73.51;101920.75;5036631;28;45507;-70
2022/12/27 03:43:19;;;;;;;;;7.00;5.75;;;;;6.69;73.43;101925.06;5018903;28;45312;-67
2022/12/27 03:49:15;;;;;;;;;6.00;6.00;;;;;6.70;73.18;101925.97;5035752;28;45281;-70
2022/12/27 03:51:56;;;;;;;;;8.25;6.00;;;;;6.70;73.32;101918.97;5035775;28;45232;-67
2022/12/27 03:54:32;;;;;;;;;7.75;7.75;;;;;6.71;73.27;101922.47;5036260;28;45314;-65
2022/12/27 03:57:01;;;;;;;;;5.50;5.50;;;;;6.69;73.78;101914.63;5035816;28;45540;-63
2022/12/27 03:59:27;;;;;;;;;9.00;9.00;;;;;6.62;73.63;101912.03;5035699;28;46190;-67
2022/12/27 04:01:52;;;;;;;;;7.00;7.00;;;;;6.69;73.55;101924.22;5038230;28;45455;-66
2022/12/27 04:04:18;;;;;;;;;5.50;5.50;;;;;6.68;74.01;101914.63;5036431;28;45367;-68
2022/12/27 04:06:43;;;;;;;;;7.25;7.25;;;;;6.60;73.69;101903.31;5036153;28;48273;-69
2022/12/27 04:36:31;;;;;;;;;7.00;7.00;;;;;6.65;74.35;101923.34;5035657;28;45355;-68
2022/12/27 04:38:57;;;;;;;;;7.50;7.50;;;;;6.65;74.05;101925.09;5035712;28;45392;-69
2022/12/27 04:55:27;;;;;;;;;6.75;6.75;;;;;6.66;73.88;101913.78;5036202;28;45344;-68
2022/12/27 04:57:53;;;;;;;;;7.00;7.00;;;;;6.66;73.65;101919.00;5035567;28;45509;-68
2022/12/27 05:03:18;;;;;;;;;7.75;7.75;;;;;6.62;74.65;101906.81;5035125;28;45865;-69
2022/12/27 05:05:45;;;;;;;;;7.00;7.00;;;;;6.63;73.62;101914.63;5035252;28;45329;-69
2022/12/27 05:13:59;;;;;;;;;8.00;8.00;;;;;6.62;74.46;101927.72;5035039;28;45864;-62
2022/12/27 05:16:40;;;;;;;;;6.50;6.50;;;;;6.62;74.23;101927.72;5035527;28;45445;-68
2022/12/27 05:19:08;;;;;;;;;8.00;8.00;;;;;6.60;74.32;101919.00;5035295;28;45387;-64
2022/12/27 05:25:33;;;;;;;;;9.50;9.50;;;;;6.61;74.38;101919.00;5034905;28;45292;-64
2022/12/27 05:27:13;;;;;;;;;7.75;7.75;;;;;6.60;74.34;101911.16;5034682;28;45337;-69
2022/12/27 05:29:39;;;;;;;;;7.50;7.50;;;;;6.65;73.74;101917.25;5034885;28;45348;-67
2022/12/27 05:32:04;;;;;;;;;8.00;8.00;;;;;6.62;74.10;101904.19;5034912;28;45380;-68
2022/12/27 05:34:29;;;;;;;;;7.00;7.00;;;;;6.67;73.53;101920.75;5034787;28;46227;-67
2022/12/27 05:36:55;;;;;;;;;6.50;6.50;;;;;6.63;74.35;101912.00;5036014;28;48032;-69
2022/12/27 05:39:20;;;;;;;;;8.50;7.50;;;;;6.64;73.73;101911.16;5035124;28;51985;-67
2022/12/27 05:41:45;;;;;;;;;8.00;8.00;;;;;6.63;74.69;101909.41;5017444;28;45541;-70
2022/12/27 05:44:11;;;;;;;;;9.00;9.00;;;;;6.64;74.43;101913.75;5034783;28;54756;-69
2022/12/27 05:46:36;;;;;;;;;11.00;11.00;;;;;6.66;74.36;101917.25;5036911;28;45353;-71
2022/12/27 05:49:01;;;;;;;;;15.00;14.50;;;;;6.67;74.25;101912.91;5039741;28;45340;-64
2022/12/27 05:51:27;;;;;;;;;9.00;9.00;;;;;6.68;74.66;101917.25;5035292;28;45317;-69
2022/12/27 05:53:52;;;;;;;;;10.00;10.00;;;;;6.68;74.10;101912.03;5034204;28;46953;-64
2022/12/27 05:56:19;;;;;;;;;14.00;14.00;;;;;6.53;74.74;101878.94;5034419;28;45380;-65
2022/12/27 05:58:45;;;;;;;;;11.00;11.00;;;;;6.65;74.66;101905.03;5034477;28;45445;-67
2022/12/27 06:01:15;;;;;;;;;11.25;11.25;;;;;6.66;74.22;101896.31;5034363;28;45220;-66
2022/12/27 06:03:40;;;;;;;;;13.50;13.50;;;;;6.65;74.94;101891.09;5035120;28;45390;-63
2022/12/27 06:06:07;;;;;;;;;14.75;14.75;;;;;6.64;74.85;101898.06;5037458;28;45450;-63
2022/12/27 06:08:33;;;;;;;;;12.00;12.00;;;;;6.61;74.63;101886.75;5037660;28;45304;-64
2022/12/27 06:11:08;;;;;;;;;12.00;12.00;;;;;6.60;74.64;101882.41;5037983;28;45452;-64
2022/12/27 06:13:35;;;;;;;;;12.50;12.50;;;;;6.55;74.42;101896.38;5037051;28;46107;-68
2022/12/27 06:16:02;;;;;;;;;14.00;14.00;;;;;6.50;74.61;101890.28;5037116;28;45199;-66
2022/12/27 06:18:30;;;;;;;;;14.75;14.75;;;;;6.50;74.32;101900.72;5019650;28;45479;-67
2022/12/27 06:21:07;;;;;;;;;13.50;13.50;;;;;6.44;74.90;101892.91;5038579;28;45384;-70
2022/12/27 06:23:35;;;;;;;;;15.50;15.25;;;;;6.42;75.19;101889.44;5037533;28;45444;-68
2022/12/27 06:26:10;;;;;;;;;15.00;15.00;;;;;6.44;75.65;101892.91;5019279;28;45306;-63
2022/12/27 06:28:36;;;;;;;;;7.25;6.00;;;;;6.43;75.38;101891.16;5037523;28;45295;-67
2022/12/27 06:31:02;;;;;;;;;10.50;10.50;;;;;6.43;75.18;101896.38;5038637;28;45316;-63
2022/12/27 06:33:28;;;;;;;;;12.00;12.00;;;;;6.42;75.28;101895.50;5037853;28;46035;-69
2022/12/27 06:35:53;;;;;;;;;13.25;13.25;;;;;6.41;74.62;101896.38;5038069;28;45548;-69
2022/12/27 06:38:19;;;;;;;;;12.00;12.00;;;;;6.41;75.42;101893.75;5037999;28;45454;-66
2022/12/27 06:40:45;;;;;;;;;12.25;12.25;;;;;6.40;74.98;101892.03;5037416;28;45388;-64
2022/12/27 06:43:11;;;;;;;;;12.50;12.50;;;;;6.39;74.48;101899.88;5036885;28;46099;-63
2022/12/27 06:45:36;;;;;;;;;12.00;12.00;;;;;6.39;75.12;101899.88;5018954;28;45395;-64
2022/12/27 06:48:01;;;;;;;;;12.50;12.50;;;;;6.32;74.09;101883.31;5037315;28;45338;-69
2022/12/27 06:50:27;;;;;;;;;14.50;14.50;;;;;6.37;75.20;101901.63;5037057;28;45537;-68
2022/12/27 06:52:52;;;;;;;;;13.75;13.75;;;;;6.38;75.00;101900.75;5036644;28;46197;-68
2022/12/27 06:55:17;;;;;;;;;16.00;14.25;;;;;6.39;75.54;101890.28;5036985;28;45407;-66
2022/12/27 06:57:43;;;;;;;;;17.00;17.00;;;;;6.43;74.56;101891.16;5036247;28;54470;-63
2022/12/27 07:00:09;;;;;;;;;13.00;13.00;;;;;6.41;75.10;101877.22;5036908;28;45260;-65
2022/12/27 07:02:34;;;;;;;;;15.00;15.00;;;;;6.43;75.04;101886.78;5036478;28;47350;-65
2022/12/27 07:04:59;;;;;;;;;12.00;12.00;;;;;6.47;75.62;101895.50;5018644;28;52881;-65
2022/12/27 07:07:25;;;;;;;;;12.00;12.00;;;;;6.50;74.81;101894.63;5037272;28;45640;-64
2022/12/27 07:09:50;;;;;;;;;14.00;14.00;;;;;6.49;75.69;101896.38;5038335;28;45486;-62
2022/12/27 07:12:15;;;;;;;;;14.00;12.25;;;;;6.49;75.28;101891.16;5036246;28;46030;-63
2022/12/27 07:14:40;;;;;;;;;18.00;16.00;;;;;6.49;75.48;101896.38;5035128;28;62789;-64
2022/12/27 07:17:06;;;;;;;;;11.50;11.50;;;;;6.53;75.25;101899.84;5036958;28;45359;-64
2022/12/27 07:19:31;;;;;;;;;10.25;10.25;;;;;6.53;75.33;101895.50;5042175;28;45235;-69
2022/12/27 07:21:57;;;;;;;;;13.50;11.75;;;;;6.54;75.31;101901.59;5047792;28;45238;-69
2022/12/27 07:24:22;;;;;;;;;13.75;11.75;;;;;6.55;74.94;101909.44;5036829;28;45488;-68
2022/12/27 07:26:47;;;;;;;;;12.75;11.00;;;;;6.58;75.60;101911.16;5036667;28;45182;-67
2022/12/27 07:29:13;;;;;;;;;10.50;10.50;;;;;6.59;75.22;101910.28;5036691;28;45286;-68
2022/12/27 07:31:39;;;;;;;;;13.75;13.75;;;;;6.60;75.26;101916.41;5036370;28;46079;-63
2022/12/27 07:34:04;;;;;;;;;15.00;15.00;;;;;6.63;74.51;101919.00;5036662;28;45353;-64
2022/12/27 07:36:35;;;;;;;;;11.50;11.00;;;;;6.58;74.47;101912.03;5038721;28;45266;-68
2022/12/27 07:39:01;;;;;;;;;13.75;13.75;;;;;6.62;75.10;101912.88;5037999;28;45486;-67
2022/12/27 07:41:27;;;;;;;;;13.75;12.50;;;;;6.66;74.83;101922.47;5037189;28;45237;-65
2022/12/27 07:43:52;;;;;;;;;14.75;14.75;;;;;6.67;75.03;101920.75;5036770;28;45247;-64
2022/12/27 07:46:21;;;;;;;;;12.00;12.00;;;;;6.68;74.49;101912.88;5036272;28;45363;-64
2022/12/27 07:48:47;;;;;;;;;17.50;15.25;;;;;6.67;74.32;101907.66;5036297;28;45507;-66
2022/12/27 07:51:14;;;;;;;;;9.75;9.75;;;;;6.68;73.74;101917.25;5018085;28;46773;-66
2022/12/27 07:53:39;;;;;;;;;18.75;17.25;;;;;6.68;74.94;101915.50;5036329;28;45199;-65
2022/12/27 07:56:14;;;;;;;;;17.00;15.75;;;;;6.69;74.47;101925.06;5037159;28;45253;-64
2022/12/27 07:58:41;;;;;;;;;9.50;9.50;;;;;6.70;74.26;101923.34;5036448;28;45375;-66
2022/12/27 08:01:08;;;;;;;;;14.25;14.25;;;;;6.69;75.15;101921.59;5035844;28;46373;-67
2022/12/27 08:03:34;;;;;;;;;15.25;15.25;;;;;6.70;74.41;101907.66;5036151;28;45448;-65
2022/12/27 08:06:00;;;;;;;;;5.00;5.00;;;;;6.72;74.47;101913.75;5035792;28;45335;-65
2022/12/27 08:08:35;;;;;;;;;8.50;8.50;;;;;6.73;74.70;101912.88;5035994;28;45261;-65
2022/12/27 08:11:01;;;;;;;;;10.25;10.25;;;;;6.73;74.32;101921.56;5035852;28;46352;-67
2022/12/27 08:13:26;;;;;;;;;14.25;14.25;;;;;6.73;74.18;101918.09;5035852;28;45795;-71
2022/12/27 08:15:52;;;;;;;;;17.25;17.25;;;;;6.76;74.09;101920.72;5036791;28;45264;-68
2022/12/27 08:18:17;;;;;;;;;13.00;13.00;;;;;6.79;74.69;101923.31;5036181;28;45535;-67
2022/12/27 08:20:43;;;;;;;;;15.00;14.00;;;;;6.81;74.34;101924.19;5034725;28;56348;-69
2022/12/27 08:23:08;;;;;;;;;10.75;10.75;;;;;6.82;74.73;101915.47;5035752;28;45349;-68
2022/12/27 08:25:33;;;;;;;;;14.00;14.00;;;;;6.85;74.84;101914.56;5035150;28;45326;-69
2022/12/27 08:28:12;;;;;;;;;28.25;26.25;;;;;6.90;73.87;101922.41;5017183;28;45347;-66
2022/12/27 08:30:38;;;;;;;;;12.75;12.75;;;;;6.89;74.06;101924.16;5036017;28;46122;-70
2022/12/27 08:33:04;;;;;;;;;42.00;36.75;;;;;6.90;73.99;101930.25;5036576;28;45359;-69
2022/12/27 08:35:30;;;;;;;;;15.00;15.00;;;;;6.90;74.74;101928.53;5035166;28;45427;-67
2022/12/27 08:37:55;;;;;;;;;10.50;10.50;;;;;6.91;74.30;101943.34;5035307;28;45346;-69
2022/12/27 08:40:21;;;;;;;;;14.75;14.25;;;;;6.91;74.24;101937.22;5035191;28;45455;-67
2022/12/27 08:42:46;;;;;;;;;13.50;13.50;;;;;6.89;73.82;101932.00;5037177;28;45315;-68
2022/12/27 08:45:12;;;;;;;;;12.50;12.50;;;;;6.71;73.68;101902.41;5035020;28;45858;-69
2022/12/27 08:47:37;;;;;;;;;24.25;22.75;;;;;6.90;73.79;101943.34;5035448;28;45499;-70
2022/12/27 08:50:03;;;;;;;;;17.50;17.50;;;;;6.92;74.30;101946.81;5035158;28;46015;-69
2022/12/27 08:52:29;;;;;;;;;15.75;15.75;;;;;6.93;73.99;101948.56;5035248;28;45380;-69
2022/12/27 08:54:54;;;;;;;;;23.00;23.00;;;;;6.89;74.54;101932.00;5035603;28;45309;-68
2022/12/27 08:57:19;;;;;;;;;11.75;11.75;;;;;6.96;74.62;101944.22;5036520;28;45318;-70
2022/12/27 08:59:45;;;;;;;;;17.50;17.50;;;;;6.88;73.45;101922.41;5034569;28;67457;-68
2022/12/27 09:02:10;;;;;;;;;15.75;15.75;;;;;6.96;73.41;101943.31;5036063;28;45302;-69
2022/12/27 09:04:36;;;;;;;;;16.25;15.75;;;;;6.96;73.98;101948.56;5038070;28;45428;-69
2022/12/27 09:07:02;;;;;;;;;16.25;15.00;;;;;6.96;73.13;101954.69;5037203;28;45555;-67
2022/12/27 09:09:27;;;;;;;;;16.00;15.00;;;;;6.99;73.82;101953.78;5035926;28;46277;-70
2022/12/27 09:11:53;;;;;;;;;19.75;18.75;;;;;6.94;73.71;101947.69;5038299;28;45380;-68
2022/12/27 09:14:19;;;;;;;;;16.00;16.00;;;;;7.01;73.99;101960.75;5035775;28;45491;-68
2022/12/27 09:16:44;;;;;;;;;16.25;15.75;;;;;6.97;74.06;101950.28;5036511;28;45400;-70
2022/12/27 09:19:10;;;;;;;;;39.00;35.00;;;;;7.03;72.92;101957.28;5037909;28;47011;-69
2022/12/27 09:21:39;;;;;;;;;21.25;21.25;;;;;7.03;73.95;101950.28;5017804;28;45405;-70
2022/12/27 09:24:06;;;;;;;;;20.50;20.50;;;;;7.04;73.88;101954.63;5034757;28;45486;-63
2022/12/27 09:26:32;;;;;;;;;18.25;18.25;;;;;7.08;73.07;101958.97;5034915;28;45557;-67
2022/12/27 09:28:58;;;;;;;;;17.00;17.00;;;;;7.09;73.65;101954.63;5035833;28;45369;-64
2022/12/27 09:31:24;;;;;;;;;17.00;17.00;;;;;7.12;74.02;101952.00;5034615;28;45494;-65
2022/12/27 09:33:51;;;;;;;;;20.75;20.75;;;;;7.18;73.36;101951.97;5034504;28;45502;-65
2022/12/27 09:36:19;;;;;;;;;6.50;6.50;;;;;7.19;73.54;101951.09;5034708;28;45328;-67
2022/12/27 09:38:45;;;;;;;;;17.50;17.50;;;;;7.23;72.76;101968.53;5036722;28;46346;-67
2022/12/27 09:41:29;;;;;;;;;32.50;31.25;;;;;7.26;73.25;101962.41;5038185;28;45283;-66
2022/12/27 09:44:09;;;;;;;;;29.75;29.75;;;;;7.23;73.19;101960.69;5037991;28;45237;-65
2022/12/27 09:46:43;;;;;;;;;17.00;17.00;;;;;7.26;73.76;101971.13;5037997;28;45341;-63
2022/12/27 09:49:16;;;;;;;;;17.50;17.50;;;;;7.29;72.77;101965.00;5037649;28;46499;-65
2022/12/27 09:52:10;;;;;;;;;17.50;17.50;;;;;7.34;72.94;101965.84;5037455;28;45289;-65
2022/12/27 09:54:53;;;;;;;;;22.75;21.75;;;;;7.34;73.37;101967.63;5036859;28;45353;-66
2022/12/27 09:57:26;;;;;;;;;28.00;28.00;;;;;7.33;72.97;101968.50;5037930;28;45209;-70
2022/12/27 09:59:57;;;;;;;;;11.75;11.75;;;;;7.23;72.82;101959.78;5018469;28;47091;-68
2022/12/27 10:02:24;;;;;;;;;19.50;18.50;;;;;7.26;73.18;101962.41;5037547;28;45399;-64
2022/12/27 10:04:51;;;;;;;;;17.25;17.25;;;;;7.27;72.51;101962.41;5037409;28;45355;-67
2022/12/27 10:07:35;;;;;;;;;15.00;15.00;;;;;7.27;72.79;101964.13;5019682;28;45494;-67
2022/12/27 10:10:09;;;;;;;;;14.75;14.75;;;;;7.21;72.69;101959.81;5037631;28;45436;-69
2022/12/27 10:12:56;;;;;;;;;24.50;22.50;;;;;7.09;71.83;101952.88;5037380;28;45468;-70
2022/12/27 10:15:39;;;;;;;;;15.25;15.25;;;;;7.09;72.59;101960.72;5038380;28;45433;-68
2022/12/27 10:18:24;;;;;;;;;12.50;12.50;;;;;7.07;72.53;101952.00;5037169;28;45441;-67
2022/12/27 10:20:58;;;;;;;;;13.75;13.50;;;;;7.05;72.88;101943.28;5036776;28;45467;-68
2022/12/27 10:23:33;;;;;;;;;15.00;15.00;;;;;7.05;72.25;101945.91;5036984;28;45393;-69
2022/12/27 10:26:06;;;;;;;;;13.25;12.25;;;;;7.05;72.22;101948.53;5037135;28;45547;-69
2022/12/27 10:28:54;;;;;;;;;15.25;15.25;;;;;7.06;72.16;101952.88;5038549;28;45270;-70
2022/12/27 10:31:22;;;;;;;;;18.00;16.50;;;;;7.04;72.32;101954.63;5037254;28;46416;-70
2022/12/27 10:33:49;;;;;;;;;15.25;15.25;;;;;7.03;72.56;101945.03;5037208;28;45366;-67
2022/12/27 10:36:19;;;;;;;;;15.00;15.00;;;;;7.05;72.70;101940.66;5037149;28;45411;-63
2022/12/27 10:38:45;;;;;;;;;18.75;18.00;;;;;7.02;72.62;101932.84;5036866;28;45434;-66
2022/12/27 10:41:35;;;;;;;;;18.50;18.50;;;;;7.06;72.30;101931.94;5036876;28;45435;-69
2022/12/27 10:44:00;;;;;;;;;18.00;16.25;;;;;7.14;73.02;101927.56;5036687;28;45234;-63
2022/12/27 10:46:28;;;;;;;;;13.75;13.75;;;;;7.16;71.92;101928.41;5035861;28;45275;-65
2022/12/27 10:48:58;;;;;;;;;16.50;16.50;;;;;7.04;72.66;101904.06;5036491;28;45436;-67
2022/12/27 10:51:31;;;;;;;;;27.25;24.50;;;;;7.29;72.04;101936.22;5018466;28;48617;-69
2022/12/27 10:54:01;;;;;;;;;15.75;15.75;;;;;7.34;71.62;101944.91;5037197;28;45427;-66
2022/12/27 10:56:29;;;;;;;;;16.75;16.75;;;;;7.39;71.81;101942.28;5036828;28;45340;-69
2022/12/27 10:59:17;;;;;;;;;14.25;14.25;;;;;7.44;71.43;101943.13;5038023;28;45475;-66
2022/12/27 11:01:49;;;;;;;;;13.75;12.00;;;;;7.47;71.28;101943.13;5036945;28;45395;-68
2022/12/27 11:04:18;;;;;;;;;11.75;11.75;;;;;7.50;71.74;101940.47;5037503;28;45386;-68
2022/12/27 11:06:46;;;;;;;;;13.25;13.25;;;;;7.51;71.21;101941.38;5036503;28;45310;-68
2022/12/27 11:09:23;;;;;;;;;11.00;11.00;;;;;7.55;70.56;101946.56;5037696;28;45628;-68
2022/12/27 11:11:48;;;;;;;;;19.00;18.00;;;;;7.57;71.24;101934.31;5036421;28;47476;-68
2022/12/27 11:14:19;;;;;;;;;15.25;15.25;;;;;7.64;70.98;101940.41;5036384;28;45288;-67
2022/12/27 11:16:47;;;;;;;;;12.00;12.00;;;;;7.69;70.63;101929.88;5018441;28;45257;-66
2022/12/27 11:19:26;;;;;;;;;15.25;15.25;;;;;7.74;70.38;101934.22;5036189;28;45459;-65
2022/12/27 11:21:54;;;;;;;;;13.00;13.00;;;;;7.77;70.58;101929.84;5036034;28;45975;-64
2022/12/27 11:24:21;;;;;;;;;10.50;10.50;;;;;7.84;70.12;101923.69;5035670;28;45345;-64
2022/12/27 11:26:58;;;;;;;;;13.00;13.00;;;;;7.80;70.04;101898.41;5036265;28;45369;-63
2022/12/27 11:29:26;;;;;;;;;13.00;13.00;;;;;7.94;69.65;101903.50;5035720;28;45324;-64
2022/12/27 11:31:53;;;;;;;;;14.00;14.00;;;;;7.94;69.88;101886.06;5035867;28;47030;-69
2022/12/27 11:34:35;;;;;;;;;8.25;8.25;;;;;8.01;68.81;101890.38;5035460;28;45436;-68
2022/12/27 11:37:14;;;;;;;;;31.50;30.75;;;;;8.07;68.99;101878.09;5035749;28;45384;-69
2022/12/27 11:39:50;;;;;;;;;16.75;16.50;;;;;8.09;68.94;101874.59;5035994;28;45269;-69
2022/12/27 11:42:15;;;;;;;;;11.50;11.50;;;;;8.16;68.50;101867.53;5036271;28;46219;-69
2022/12/27 11:44:45;;;;;;;;;12.25;12.25;;;;;8.19;68.23;101857.88;5035989;28;45214;-71
2022/12/27 11:47:25;;;;;;;;;12.50;12.50;;;;;8.20;68.37;101856.13;5036100;28;45320;-70
2022/12/27 11:50:00;;;;;;;;;12.75;12.75;;;;;8.21;68.33;101855.25;5036733;28;45175;-65
2022/12/27 11:52:46;;;;;;;;;21.00;21.00;;;;;8.29;67.84;101860.41;5035897;28;45395;-67
2022/12/27 11:55:45;;;;;;;;;15.50;15.50;;;;;8.31;67.71;101859.50;5035534;28;45249;-70
2022/12/27 11:58:35;;;;;;;;;12.50;12.50;;;;;8.38;67.65;101860.31;5018851;28;45506;-68
2022/12/27 12:01:36;;;;;;;;;10.00;10.00;;;;;8.43;66.98;101865.50;5035799;28;45182;-67
2022/12/27 12:04:23;;;;;;;;;6.50;6.50;;;;;8.45;66.74;101869.84;5035638;28;45731;-69
2022/12/27 12:07:14;;;;;;;;;10.25;10.25;;;;;8.48;66.79;101858.44;5035426;28;45256;-65
2022/12/27 12:10:25;;;;;;;;;12.50;12.50;;;;;8.50;66.60;101851.50;5006306;28;45445;-67
2022/12/27 12:13:02;;;;;;;;;8.50;8.50;;;;;8.58;66.35;101870.63;5036369;28;45301;-65
2022/12/27 12:15:32;;;;;;;;;10.75;10.75;;;;;8.61;66.38;101870.59;5035101;28;45337;-63
2022/12/27 12:18:24;;;;;;;;;13.00;13.00;;;;;8.67;66.08;101866.19;5035257;28;45339;-67
2022/12/27 12:21:21;;;;;;;;;11.00;11.00;;;;;8.70;66.19;101874.00;5035386;28;45451;-67
2022/12/27 12:24:00;;;;;;;;;11.75;11.75;;;;;8.70;66.42;101863.50;5035664;28;45415;-66
2022/12/27 12:26:34;;;;;;;;;13.25;13.25;;;;;8.78;66.67;101872.16;5034793;28;46199;-70
2022/12/27 12:29:25;;;;;;;;;13.75;13.75;;;;;8.81;66.65;101859.00;5034885;28;45242;-68
2022/12/27 12:32:20;;;;;;;;;13.00;13.00;;;;;8.85;66.56;101850.22;5035698;28;45371;-66
2022/12/27 12:35:05;;;;;;;;;12.00;12.00;;;;;8.90;66.60;101842.25;5036674;28;45419;-68
2022/12/27 12:37:51;;;;;;;;;13.25;13.25;;;;;8.97;66.52;101836.03;5036376;28;46440;-70
2022/12/27 12:40:35;;;;;;;;;14.25;13.00;;;;;9.03;66.01;101829.84;5036992;28;45340;-65
2022/12/27 12:43:37;;;;;;;;;25.75;25.75;;;;;9.06;66.59;101821.94;5036546;28;45393;-65
2022/12/27 12:46:27;;;;;;;;;12.25;11.75;;;;;9.12;66.26;101815.75;5034801;28;45348;-68
2022/12/27 12:49:21;;;;;;;;;11.00;11.00;;;;;9.16;66.47;101813.03;5034545;28;45361;-67
2022/12/27 12:52:04;;;;;;;;;8.00;8.00;;;;;9.20;66.11;101817.34;5034644;28;45507;-65
2022/12/27 12:54:48;;;;;;;;;8.50;8.50;;;;;9.23;65.74;101811.22;5034711;28;45469;-66
2022/12/27 12:57:31;;;;;;;;;6.75;6.75;;;;;9.26;65.51;101795.41;5034621;28;45452;-66
2022/12/27 13:00:08;;;;;;;;;10.25;9.50;;;;;9.30;65.32;101796.22;5037804;28;47880;-68
2022/12/27 13:03:11;;;;;;;;;9.75;8.50;;;;;9.33;64.58;101797.03;5034948;28;45473;-67
2022/12/27 13:05:49;;;;;;;;;5.75;5.75;;;;;9.34;64.41;101797.91;5034850;28;45466;-64
2022/12/27 13:08:31;;;;;;;;;20.00;20.00;;;;;9.34;63.89;101798.78;5034416;28;45341;-64
2022/12/27 13:11:22;;;;;;;;;11.50;11.50;;;;;9.35;64.34;101779.50;5034481;28;45456;-66
2022/12/27 13:14:12;;;;;;;;;7.00;7.00;;;;;9.39;64.03;101785.56;5037147;28;45371;-66
2022/12/27 13:16:57;;;;;;;;;3.75;3.75;;;;;9.42;63.98;101777.63;5038067;28;45873;-67
2022/12/27 13:19:56;;;;;;;;;64.00;53.00;;;;;9.39;64.18;101769.81;5038361;28;45728;-68
2022/12/27 13:22:49;;;;;;;;;6.00;6.00;;;;;9.48;63.97;101771.44;5038132;28;45996;-66